Long Lake, NY

6:13 AM EDT on April 26, 2018 (GMT -0400)
Adirondack Acres W2CJS | | Change Station
Active Advisory: Flood Warning

Elev 1650 ft 43.98 °N, 74.43 °W | Updated 1 second ago

Overcast
Overcast
43.7 °F
Feels Like 42 °F
N
4.0
Wind Variable Wind from SSW
Gusts 7.0 mph

Today
High -- | Low -- °F
--% Chance of Precip.
Yesterday
High -- | Low -- °F
Precip. -- in
Pressure 29.58 in
Visibility 10.0 miles
Clouds Overcast 300 ft
Windchill 42 °F
Dew Point 43 °F
Humidity 98%
Rainfall 0.00 in
Snow Depth Not available.
5:56 AM 7:54 PM
Waxing Gibbous, 86% visible
METAR KSLK 260951Z AUTO 24007KT 10SM OVC003 07/07 A2956 RMK AO2 RAB34E46 SLP017 P0000 T00670067
Pressure 29.58 in
Visibility 10.0 miles
Clouds Overcast 300 ft
Windchill 42 °F
Dew Point 43 °F
Humidity 98%
Rainfall 0.00 in
Snow Depth Not available.
5:56 AM 7:54 PM
Waxing Gibbous, 86% visible
METAR KSLK 260951Z AUTO 24007KT 10SM OVC003 07/07 A2956 RMK AO2 RAB34E46 SLP017 P0000 T00670067

Get Your Daily Forecast Email!

Thanks for signing up!

Be on the lookout for a verification email in your inbox.

You'll start receiving severe weather alerts in your inbox..

×

10-Day Weather Forecast

Almanac

Astronomy

Apr. 26, 2018 Rise Set
Actual Time
Civil Twilight
Nautical Twilight
Astronomical Twilight
Moon
Length of Visible Light
Length of Day
Tomorrow will be .
, % of the Moon is Illuminated

Today's Extremes

State Highs State Lows

Community

WunderPhotos

Category 6

Welcome to Category 6. This is the collective home for Weather Underground's featured writeups by Dr. Jeff Masters (right), Bob Henson (left), Chris Burt, and other regular contributors.

Nearby

Air Quality

  Air Quality AQ Index Pollutant
Not available.

Snow Depth

Station Depth Elevation

Earthquake Activity

City Distance Mag. Time & Date
Minimum magnitude displayed is 2.5.

Coastal Water Temperatures

Place Temperature

Stations

Nearby Weather Stations

Station Location Temp. Windchill Dew Point Humidity Wind Precip. Elev Updated Type
                   

Watches & Warnings

Flood Warning
Issued: 5:13 AM EDT Apr. 26, 2018 – National Weather Service

... Flood Warning now in effect until this afternoon...

the Flood Warning continues for
the Sacandaga river at hope.
* Until this afternoon.
* At 4 am Thursday the stage was 7.6 feet.
* Flood stage is 7 feet.
* Minor flooding is occurring and minor flooding is forecast.
* The river is forecast to continue to fall to below flood stage
after 9 am Thursday.
* Impact... at 8 feet... water floods NY Route 30 near the hope town
garage.


                  Fld observed forecast
                                       8 am 2 PM 8 PM 2 am 8 am
location stg stg day time Thu Thu Thu Fri Fri

Sacandaga river
hope 7.0 7.6 Thu 05 am 7.2 6.3 5.8 5.5 5.3


lat... Lon 4334 7433 4339 7424 4329 7418 4324 7425